sensor_id;sensor_type;location;lat;lon;timestamp;P1;durP1;ratioP1;P2;durP2;ratioP2
7116;SDS011;3600;48.568;7.870;2022-10-23T00:01:40;5.53;;;2.83;;
7116;SDS011;3600;48.568;7.870;2022-10-23T00:04:13;3.28;;;2.30;;
7116;SDS011;3600;48.568;7.870;2022-10-23T00:06:41;2.75;;;2.42;;
7116;SDS011;3600;48.568;7.870;2022-10-23T00:09:09;4.57;;;3.15;;
7116;SDS011;3600;48.568;7.870;2022-10-23T00:11:38;6.65;;;2.90;;
7116;SDS011;3600;48.568;7.870;2022-10-23T00:14:06;8.15;;;2.65;;
7116;SDS011;3600;48.568;7.870;2022-10-23T00:16:33;7.05;;;2.70;;
7116;SDS011;3600;48.568;7.870;2022-10-23T00:19:00;3.40;;;2.85;;
7116;SDS011;3600;48.568;7.870;2022-10-23T00:21:28;4.10;;;2.80;;
7116;SDS011;3600;48.568;7.870;2022-10-23T00:23:55;2.85;;;2.42;;
7116;SDS011;3600;48.568;7.870;2022-10-23T00:26:22;7.35;;;2.78;;
7116;SDS011;3600;48.568;7.870;2022-10-23T00:28:50;5.15;;;2.83;;
7116;SDS011;3600;48.568;7.870;2022-10-23T00:31:18;4.15;;;2.70;;
7116;SDS011;3600;48.568;7.870;2022-10-23T00:33:47;4.00;;;2.90;;
7116;SDS011;3600;48.568;7.870;2022-10-23T00:36:15;5.50;;;3.10;;
7116;SDS011;3600;48.568;7.870;2022-10-23T00:38:43;2.90;;;2.70;;
7116;SDS011;3600;48.568;7.870;2022-10-23T00:41:15;4.07;;;3.00;;
7116;SDS011;3600;48.568;7.870;2022-10-23T00:43:58;6.47;;;3.40;;
7116;SDS011;3600;48.568;7.870;2022-10-23T00:46:55;3.95;;;2.92;;
7116;SDS011;3600;48.568;7.870;2022-10-23T00:49:22;3.95;;;3.53;;
7116;SDS011;3600;48.568;7.870;2022-10-23T00:51:52;4.00;;;3.33;;
7116;SDS011;3600;48.568;7.870;2022-10-23T00:54:23;3.88;;;3.40;;
7116;SDS011;3600;48.568;7.870;2022-10-23T00:56:53;3.80;;;3.22;;
7116;SDS011;3600;48.568;7.870;2022-10-23T00:59:24;3.80;;;3.40;;
7116;SDS011;3600;48.568;7.870;2022-10-23T01:01:51;4.53;;;4.05;;
7116;SDS011;3600;48.568;7.870;2022-10-23T01:04:19;3.88;;;3.58;;
7116;SDS011;3600;48.568;7.870;2022-10-23T01:06:52;7.90;;;4.78;;
7116;SDS011;3600;48.568;7.870;2022-10-23T01:09:32;6.15;;;4.28;;
7116;SDS011;3600;48.568;7.870;2022-10-23T01:26:33;8.30;;;4.05;;
7116;SDS011;3600;48.568;7.870;2022-10-23T01:29:22;3.80;;;3.47;;
7116;SDS011;3600;48.568;7.870;2022-10-23T01:32:03;4.32;;;3.63;;
7116;SDS011;3600;48.568;7.870;2022-10-23T01:37:20;6.57;;;3.83;;
7116;SDS011;3600;48.568;7.870;2022-10-23T01:39:52;8.00;;;3.55;;
7116;SDS011;3600;48.568;7.870;2022-10-23T01:42:27;4.50;;;4.07;;
7116;SDS011;3600;48.568;7.870;2022-10-23T01:45:11;5.07;;;3.97;;
7116;SDS011;3600;48.568;7.870;2022-10-23T01:47:43;6.07;;;3.95;;
7116;SDS011;3600;48.568;7.870;2022-10-23T01:50:11;4.03;;;3.72;;
7116;SDS011;3600;48.568;7.870;2022-10-23T01:52:40;4.97;;;3.58;;
7116;SDS011;3600;48.568;7.870;2022-10-23T01:55:07;7.45;;;4.20;;
7116;SDS011;3600;48.568;7.870;2022-10-23T01:57:36;8.55;;;4.28;;
7116;SDS011;3600;48.568;7.870;2022-10-23T02:00:07;4.90;;;4.10;;
7116;SDS011;3600;48.568;7.870;2022-10-23T02:02:37;3.97;;;3.67;;
7116;SDS011;3600;48.568;7.870;2022-10-23T02:05:06;6.13;;;3.92;;
7116;SDS011;3600;48.568;7.870;2022-10-23T02:07:37;5.57;;;4.00;;
7116;SDS011;3600;48.568;7.870;2022-10-23T02:10:05;4.68;;;3.95;;
7116;SDS011;3600;48.568;7.870;2022-10-23T02:15:30;3.90;;;3.60;;
7116;SDS011;3600;48.568;7.870;2022-10-23T02:20:48;4.03;;;3.70;;
7116;SDS011;3600;48.568;7.870;2022-10-23T02:25:55;5.10;;;4.00;;
7116;SDS011;3600;48.568;7.870;2022-10-23T02:28:39;6.80;;;3.88;;
7116;SDS011;3600;48.568;7.870;2022-10-23T02:31:13;6.70;;;3.65;;
7116;SDS011;3600;48.568;7.870;2022-10-23T02:33:43;5.70;;;3.78;;
7116;SDS011;3600;48.568;7.870;2022-10-23T02:36:12;4.68;;;4.10;;
7116;SDS011;3600;48.568;7.870;2022-10-23T02:38:40;6.90;;;3.88;;
7116;SDS011;3600;48.568;7.870;2022-10-23T02:41:22;4.25;;;3.80;;
7116;SDS011;3600;48.568;7.870;2022-10-23T02:44:15;5.28;;;3.78;;
7116;SDS011;3600;48.568;7.870;2022-10-23T02:57:43;5.30;;;3.22;;
7116;SDS011;3600;48.568;7.870;2022-10-23T03:00:15;4.10;;;3.70;;
7116;SDS011;3600;48.568;7.870;2022-10-23T03:02:45;6.95;;;3.50;;
7116;SDS011;3600;48.568;7.870;2022-10-23T03:05:16;4.20;;;3.80;;
7116;SDS011;3600;48.568;7.870;2022-10-23T03:07:47;5.97;;;3.58;;
7116;SDS011;3600;48.568;7.870;2022-10-23T03:10:14;3.80;;;3.47;;
7116;SDS011;3600;48.568;7.870;2022-10-23T03:12:41;4.22;;;3.28;;
7116;SDS011;3600;48.568;7.870;2022-10-23T03:15:09;6.18;;;3.58;;
7116;SDS011;3600;48.568;7.870;2022-10-23T03:17:37;6.93;;;3.90;;
7116;SDS011;3600;48.568;7.870;2022-10-23T03:20:05;6.13;;;3.70;;
7116;SDS011;3600;48.568;7.870;2022-10-23T03:22:32;4.22;;;3.33;;
7116;SDS011;3600;48.568;7.870;2022-10-23T03:24:59;3.83;;;3.45;;
7116;SDS011;3600;48.568;7.870;2022-10-23T03:27:26;3.53;;;3.22;;
7116;SDS011;3600;48.568;7.870;2022-10-23T03:29:58;6.15;;;3.65;;
7116;SDS011;3600;48.568;7.870;2022-10-23T03:32:25;5.47;;;3.42;;
7116;SDS011;3600;48.568;7.870;2022-10-23T03:34:52;3.28;;;2.92;;
7116;SDS011;3600;48.568;7.870;2022-10-23T03:37:18;3.65;;;3.35;;
7116;SDS011;3600;48.568;7.870;2022-10-23T03:39:45;5.13;;;3.45;;
7116;SDS011;3600;48.568;7.870;2022-10-23T03:42:12;5.88;;;3.40;;
7116;SDS011;3600;48.568;7.870;2022-10-23T03:44:39;4.13;;;3.50;;
7116;SDS011;3600;48.568;7.870;2022-10-23T03:47:06;5.57;;;3.63;;
7116;SDS011;3600;48.568;7.870;2022-10-23T03:49:35;3.70;;;3.38;;
7116;SDS011;3600;48.568;7.870;2022-10-23T03:52:02;3.90;;;3.38;;
7116;SDS011;3600;48.568;7.870;2022-10-23T03:54:29;3.95;;;3.35;;
7116;SDS011;3600;48.568;7.870;2022-10-23T03:56:56;4.35;;;3.17;;
7116;SDS011;3600;48.568;7.870;2022-10-23T03:59:23;4.45;;;4.05;;
7116;SDS011;3600;48.568;7.870;2022-10-23T04:01:49;5.18;;;3.70;;
7116;SDS011;3600;48.568;7.870;2022-10-23T04:04:16;3.97;;;3.50;;
7116;SDS011;3600;48.568;7.870;2022-10-23T04:06:43;3.80;;;3.50;;
7116;SDS011;3600;48.568;7.870;2022-10-23T04:09:10;8.00;;;3.70;;
7116;SDS011;3600;48.568;7.870;2022-10-23T04:11:38;3.90;;;3.60;;
7116;SDS011;3600;48.568;7.870;2022-10-23T04:14:05;5.60;;;3.55;;
7116;SDS011;3600;48.568;7.870;2022-10-23T04:16:31;5.40;;;3.80;;
7116;SDS011;3600;48.568;7.870;2022-10-23T04:18:58;4.00;;;3.55;;
7116;SDS011;3600;48.568;7.870;2022-10-23T04:21:25;3.58;;;3.28;;
7116;SDS011;3600;48.568;7.870;2022-10-23T04:23:51;3.83;;;3.40;;
7116;SDS011;3600;48.568;7.870;2022-10-23T04:26:18;3.53;;;3.22;;
7116;SDS011;3600;48.568;7.870;2022-10-23T04:28:45;3.60;;;3.08;;
7116;SDS011;3600;48.568;7.870;2022-10-23T04:31:12;3.53;;;2.90;;
7116;SDS011;3600;48.568;7.870;2022-10-23T04:33:39;5.55;;;3.50;;
7116;SDS011;3600;48.568;7.870;2022-10-23T04:36:06;3.90;;;2.83;;
7116;SDS011;3600;48.568;7.870;2022-10-23T04:38:33;3.22;;;3.03;;
7116;SDS011;3600;48.568;7.870;2022-10-23T04:40:59;3.20;;;2.90;;
7116;SDS011;3600;48.568;7.870;2022-10-23T04:43:26;4.32;;;2.90;;
7116;SDS011;3600;48.568;7.870;2022-10-23T04:45:53;6.25;;;2.90;;
7116;SDS011;3600;48.568;7.870;2022-10-23T04:48:20;3.58;;;3.28;;
7116;SDS011;3600;48.568;7.870;2022-10-23T04:50:57;3.88;;;3.22;;
7116;SDS011;3600;48.568;7.870;2022-10-23T04:53:26;2.97;;;2.67;;
7116;SDS011;3600;48.568;7.870;2022-10-23T04:55:54;3.03;;;2.72;;
7116;SDS011;3600;48.568;7.870;2022-10-23T04:58:23;4.18;;;3.25;;
7116;SDS011;3600;48.568;7.870;2022-10-23T05:00:51;5.20;;;3.35;;
7116;SDS011;3600;48.568;7.870;2022-10-23T05:03:18;4.82;;;3.10;;
7116;SDS011;3600;48.568;7.870;2022-10-23T05:05:46;4.45;;;2.78;;
7116;SDS011;3600;48.568;7.870;2022-10-23T05:08:13;4.50;;;2.85;;
7116;SDS011;3600;48.568;7.870;2022-10-23T05:10:43;5.78;;;2.90;;
7116;SDS011;3600;48.568;7.870;2022-10-23T05:13:10;3.33;;;2.65;;
7116;SDS011;3600;48.568;7.870;2022-10-23T05:15:36;3.33;;;3.03;;
7116;SDS011;3600;48.568;7.870;2022-10-23T05:18:49;3.65;;;2.80;;
7116;SDS011;3600;48.568;7.870;2022-10-23T05:20:54;4.28;;;2.75;;
7116;SDS011;3600;48.568;7.870;2022-10-23T05:23:30;6.70;;;2.50;;
7116;SDS011;3600;48.568;7.870;2022-10-23T05:25:59;5.97;;;2.72;;
7116;SDS011;3600;48.568;7.870;2022-10-23T05:28:25;7.13;;;2.97;;
7116;SDS011;3600;48.568;7.870;2022-10-23T05:30:52;2.72;;;2.40;;
7116;SDS011;3600;48.568;7.870;2022-10-23T05:33:19;2.85;;;2.63;;
7116;SDS011;3600;48.568;7.870;2022-10-23T05:35:46;6.30;;;3.47;;
7116;SDS011;3600;48.568;7.870;2022-10-23T05:38:13;5.70;;;2.92;;
7116;SDS011;3600;48.568;7.870;2022-10-23T05:40:40;4.97;;;2.60;;
7116;SDS011;3600;48.568;7.870;2022-10-23T05:43:07;4.38;;;2.88;;
7116;SDS011;3600;48.568;7.870;2022-10-23T05:45:34;4.07;;;3.78;;
7116;SDS011;3600;48.568;7.870;2022-10-23T05:48:01;3.25;;;3.03;;
7116;SDS011;3600;48.568;7.870;2022-10-23T05:50:42;3.33;;;3.10;;
7116;SDS011;3600;48.568;7.870;2022-10-23T05:53:09;3.80;;;3.47;;
7116;SDS011;3600;48.568;7.870;2022-10-23T05:55:36;3.72;;;3.40;;
7116;SDS011;3600;48.568;7.870;2022-10-23T05:58:03;3.90;;;3.60;;
7116;SDS011;3600;48.568;7.870;2022-10-23T06:00:30;7.65;;;3.83;;
7116;SDS011;3600;48.568;7.870;2022-10-23T06:03:00;6.57;;;4.05;;
7116;SDS011;3600;48.568;7.870;2022-10-23T06:05:27;5.15;;;4.05;;
7116;SDS011;3600;48.568;7.870;2022-10-23T06:07:57;8.55;;;3.83;;
7116;SDS011;3600;48.568;7.870;2022-10-23T06:10:25;6.82;;;4.13;;
7116;SDS011;3600;48.568;7.870;2022-10-23T06:12:52;4.40;;;3.65;;
7116;SDS011;3600;48.568;7.870;2022-10-23T06:15:19;5.07;;;3.55;;
7116;SDS011;3600;48.568;7.870;2022-10-23T06:17:46;5.35;;;3.50;;
7116;SDS011;3600;48.568;7.870;2022-10-23T06:20:12;3.45;;;3.15;;
7116;SDS011;3600;48.568;7.870;2022-10-23T06:22:39;4.80;;;2.97;;
7116;SDS011;3600;48.568;7.870;2022-10-23T06:25:06;5.88;;;3.05;;
7116;SDS011;3600;48.568;7.870;2022-10-23T06:27:34;5.15;;;3.47;;
7116;SDS011;3600;48.568;7.870;2022-10-23T06:30:00;3.15;;;2.85;;
7116;SDS011;3600;48.568;7.870;2022-10-23T06:32:30;3.30;;;3.00;;
7116;SDS011;3600;48.568;7.870;2022-10-23T06:34:57;3.50;;;3.20;;
7116;SDS011;3600;48.568;7.870;2022-10-23T06:37:23;3.53;;;2.92;;
7116;SDS011;3600;48.568;7.870;2022-10-23T06:39:50;3.30;;;3.00;;
7116;SDS011;3600;48.568;7.870;2022-10-23T06:42:17;4.05;;;2.83;;
7116;SDS011;3600;48.568;7.870;2022-10-23T06:44:44;3.05;;;2.85;;
7116;SDS011;3600;48.568;7.870;2022-10-23T06:47:10;3.22;;;2.92;;
7116;SDS011;3600;48.568;7.870;2022-10-23T06:49:39;3.60;;;3.28;;
7116;SDS011;3600;48.568;7.870;2022-10-23T06:52:06;4.50;;;4.10;;
7116;SDS011;3600;48.568;7.870;2022-10-23T06:54:48;7.47;;;5.22;;
7116;SDS011;3600;48.568;7.870;2022-10-23T06:57:15;11.43;;;8.27;;
7116;SDS011;3600;48.568;7.870;2022-10-23T06:59:41;7.90;;;5.25;;
7116;SDS011;3600;48.568;7.870;2022-10-23T07:02:08;7.03;;;4.80;;
7116;SDS011;3600;48.568;7.870;2022-10-23T07:04:35;7.28;;;5.47;;
7116;SDS011;3600;48.568;7.870;2022-10-23T07:07:02;5.20;;;4.70;;
7116;SDS011;3600;48.568;7.870;2022-10-23T07:09:29;5.40;;;4.88;;
7116;SDS011;3600;48.568;7.870;2022-10-23T07:11:55;6.60;;;4.30;;
7116;SDS011;3600;48.568;7.870;2022-10-23T07:14:22;7.72;;;4.00;;
7116;SDS011;3600;48.568;7.870;2022-10-23T07:16:49;4.20;;;3.70;;
7116;SDS011;3600;48.568;7.870;2022-10-23T07:19:16;3.30;;;3.00;;
7116;SDS011;3600;48.568;7.870;2022-10-23T07:21:42;3.97;;;3.55;;
7116;SDS011;3600;48.568;7.870;2022-10-23T07:24:09;6.82;;;3.40;;
7116;SDS011;3600;48.568;7.870;2022-10-23T07:26:36;3.58;;;3.28;;
7116;SDS011;3600;48.568;7.870;2022-10-23T07:29:03;3.42;;;3.13;;
7116;SDS011;3600;48.568;7.870;2022-10-23T07:31:30;3.33;;;3.13;;
7116;SDS011;3600;48.568;7.870;2022-10-23T07:33:56;2.92;;;2.72;;
7116;SDS011;3600;48.568;7.870;2022-10-23T07:36:23;3.42;;;2.97;;
7116;SDS011;3600;48.568;7.870;2022-10-23T07:38:50;2.90;;;2.65;;
7116;SDS011;3600;48.568;7.870;2022-10-23T07:41:17;4.63;;;3.63;;
7116;SDS011;3600;48.568;7.870;2022-10-23T07:43:44;3.58;;;3.28;;
7116;SDS011;3600;48.568;7.870;2022-10-23T07:46:11;2.60;;;2.40;;
7116;SDS011;3600;48.568;7.870;2022-10-23T07:48:38;4.03;;;2.58;;
7116;SDS011;3600;48.568;7.870;2022-10-23T07:51:07;2.97;;;2.78;;
7116;SDS011;3600;48.568;7.870;2022-10-23T07:53:37;3.45;;;2.42;;
7116;SDS011;3600;48.568;7.870;2022-10-23T07:58:43;3.47;;;2.47;;
7116;SDS011;3600;48.568;7.870;2022-10-23T08:01:14;2.65;;;2.17;;
7116;SDS011;3600;48.568;7.870;2022-10-23T08:03:46;2.92;;;2.67;;
7116;SDS011;3600;48.568;7.870;2022-10-23T08:06:13;2.47;;;2.17;;
7116;SDS011;3600;48.568;7.870;2022-10-23T08:08:40;2.40;;;2.20;;
7116;SDS011;3600;48.568;7.870;2022-10-23T08:11:08;3.28;;;2.47;;
7116;SDS011;3600;48.568;7.870;2022-10-23T08:13:37;2.20;;;1.98;;
7116;SDS011;3600;48.568;7.870;2022-10-23T08:16:04;2.95;;;2.33;;
7116;SDS011;3600;48.568;7.870;2022-10-23T08:18:31;6.28;;;2.17;;
7116;SDS011;3600;48.568;7.870;2022-10-23T08:20:59;2.28;;;2.08;;
7116;SDS011;3600;48.568;7.870;2022-10-23T08:23:28;2.10;;;1.90;;
7116;SDS011;3600;48.568;7.870;2022-10-23T08:25:56;2.30;;;1.90;;
7116;SDS011;3600;48.568;7.870;2022-10-23T08:28:24;2.20;;;2.00;;
7116;SDS011;3600;48.568;7.870;2022-10-23T08:30:51;3.08;;;2.08;;
7116;SDS011;3600;48.568;7.870;2022-10-23T08:33:18;3.20;;;2.00;;
7116;SDS011;3600;48.568;7.870;2022-10-23T08:35:45;2.53;;;2.33;;
7116;SDS011;3600;48.568;7.870;2022-10-23T08:38:12;2.45;;;2.20;;
7116;SDS011;3600;48.568;7.870;2022-10-23T08:40:42;3.75;;;2.35;;
7116;SDS011;3600;48.568;7.870;2022-10-23T08:43:20;3.42;;;2.35;;
7116;SDS011;3600;48.568;7.870;2022-10-23T08:45:55;3.88;;;2.47;;
7116;SDS011;3600;48.568;7.870;2022-10-23T08:48:49;2.53;;;2.08;;
7116;SDS011;3600;48.568;7.870;2022-10-23T08:51:22;3.60;;;3.25;;
7116;SDS011;3600;48.568;7.870;2022-10-23T08:56:49;2.90;;;2.70;;
7116;SDS011;3600;48.568;7.870;2022-10-23T08:59:28;2.28;;;2.05;;
7116;SDS011;3600;48.568;7.870;2022-10-23T09:02:13;4.53;;;2.30;;
7116;SDS011;3600;48.568;7.870;2022-10-23T09:04:45;3.78;;;2.38;;
7116;SDS011;3600;48.568;7.870;2022-10-23T09:12:41;2.53;;;2.30;;
7116;SDS011;3600;48.568;7.870;2022-10-23T09:17:58;3.42;;;2.03;;
7116;SDS011;3600;48.568;7.870;2022-10-23T09:20:34;2.20;;;2.10;;
7116;SDS011;3600;48.568;7.870;2022-10-23T09:23:03;2.30;;;2.10;;
7116;SDS011;3600;48.568;7.870;2022-10-23T09:25:39;2.55;;;1.80;;
7116;SDS011;3600;48.568;7.870;2022-10-23T09:28:12;1.98;;;1.77;;
7116;SDS011;3600;48.568;7.870;2022-10-23T09:30:46;3.13;;;1.90;;
7116;SDS011;3600;48.568;7.870;2022-10-23T09:33:21;2.53;;;1.80;;
7116;SDS011;3600;48.568;7.870;2022-10-23T09:35:52;3.75;;;1.73;;
7116;SDS011;3600;48.568;7.870;2022-10-23T09:38:32;2.17;;;1.98;;
7116;SDS011;3600;48.568;7.870;2022-10-23T09:41:01;2.53;;;2.00;;
7116;SDS011;3600;48.568;7.870;2022-10-23T09:43:36;3.70;;;1.52;;
7116;SDS011;3600;48.568;7.870;2022-10-23T09:46:03;1.92;;;1.52;;
7116;SDS011;3600;48.568;7.870;2022-10-23T09:48:32;2.35;;;1.58;;
7116;SDS011;3600;48.568;7.870;2022-10-23T09:51:00;1.55;;;1.20;;
7116;SDS011;3600;48.568;7.870;2022-10-23T09:53:31;1.13;;;1.13;;
7116;SDS011;3600;48.568;7.870;2022-10-23T09:56:02;1.77;;;1.50;;
7116;SDS011;3600;48.568;7.870;2022-10-23T09:58:34;3.00;;;1.25;;
7116;SDS011;3600;48.568;7.870;2022-10-23T10:01:03;1.52;;;1.27;;
7116;SDS011;3600;48.568;7.870;2022-10-23T10:03:31;4.80;;;1.48;;
7116;SDS011;3600;48.568;7.870;2022-10-23T10:06:02;4.60;;;1.50;;
7116;SDS011;3600;48.568;7.870;2022-10-23T10:08:42;2.08;;;1.67;;
7116;SDS011;3600;48.568;7.870;2022-10-23T10:11:23;1.50;;;1.38;;
7116;SDS011;3600;48.568;7.870;2022-10-23T10:16:47;1.40;;;1.30;;
7116;SDS011;3600;48.568;7.870;2022-10-23T10:24:55;1.50;;;1.40;;
7116;SDS011;3600;48.568;7.870;2022-10-23T10:30:21;1.90;;;1.05;;
7116;SDS011;3600;48.568;7.870;2022-10-23T10:33:06;3.33;;;1.48;;
7116;SDS011;3600;48.568;7.870;2022-10-23T10:35:43;2.70;;;1.20;;
7116;SDS011;3600;48.568;7.870;2022-10-23T10:38:47;1.83;;;1.30;;
7116;SDS011;3600;48.568;7.870;2022-10-23T10:41:27;1.98;;;1.38;;
7116;SDS011;3600;48.568;7.870;2022-10-23T10:47:10;1.60;;;1.50;;
7116;SDS011;3600;48.568;7.870;2022-10-23T10:50:05;2.90;;;1.40;;
7116;SDS011;3600;48.568;7.870;2022-10-23T10:53:47;1.55;;;1.45;;
7116;SDS011;3600;48.568;7.870;2022-10-23T10:55:53;1.95;;;1.48;;
7116;SDS011;3600;48.568;7.870;2022-10-23T10:58:23;1.50;;;1.40;;
7116;SDS011;3600;48.568;7.870;2022-10-23T11:01:13;3.45;;;1.65;;
7116;SDS011;3600;48.568;7.870;2022-10-23T11:06:51;2.50;;;1.65;;
7116;SDS011;3600;48.568;7.870;2022-10-23T11:09:21;1.35;;;1.30;;
7116;SDS011;3600;48.568;7.870;2022-10-23T11:11:52;3.25;;;1.58;;
7116;SDS011;3600;48.568;7.870;2022-10-23T11:14:23;1.58;;;1.48;;
7116;SDS011;3600;48.568;7.870;2022-10-23T11:19:26;1.52;;;1.42;;
7116;SDS011;3600;48.568;7.870;2022-10-23T11:22:36;3.25;;;1.52;;
7116;SDS011;3600;48.568;7.870;2022-10-23T11:25:12;4.30;;;1.63;;
7116;SDS011;3600;48.568;7.870;2022-10-23T11:38:45;2.97;;;1.27;;
7116;SDS011;3600;48.568;7.870;2022-10-23T11:43:50;0.88;;;0.88;;
7116;SDS011;3600;48.568;7.870;2022-10-23T11:46:31;1.95;;;1.70;;
7116;SDS011;3600;48.568;7.870;2022-10-23T11:49:00;3.90;;;1.77;;
7116;SDS011;3600;48.568;7.870;2022-10-23T11:51:38;5.38;;;1.30;;
7116;SDS011;3600;48.568;7.870;2022-10-23T11:54:06;1.38;;;1.27;;
7116;SDS011;3600;48.568;7.870;2022-10-23T11:56:33;1.30;;;1.20;;
7116;SDS011;3600;48.568;7.870;2022-10-23T12:02:21;2.85;;;1.10;;
7116;SDS011;3600;48.568;7.870;2022-10-23T12:04:54;0.95;;;0.95;;
7116;SDS011;3600;48.568;7.870;2022-10-23T12:09:57;1.10;;;1.10;;
7116;SDS011;3600;48.568;7.870;2022-10-23T12:12:33;1.45;;;1.00;;
7116;SDS011;3600;48.568;7.870;2022-10-23T12:15:07;1.92;;;1.10;;
7116;SDS011;3600;48.568;7.870;2022-10-23T12:17:40;1.83;;;0.98;;
7116;SDS011;3600;48.568;7.870;2022-10-23T12:25:16;1.17;;;1.02;;
7116;SDS011;3600;48.568;7.870;2022-10-23T12:28:07;1.45;;;1.15;;
7116;SDS011;3600;48.568;7.870;2022-10-23T12:30:44;0.90;;;0.90;;
7116;SDS011;3600;48.568;7.870;2022-10-23T12:33:30;2.40;;;1.25;;
7116;SDS011;3600;48.568;7.870;2022-10-23T12:38:43;1.73;;;1.27;;
7116;SDS011;3600;48.568;7.870;2022-10-23T12:41:15;1.20;;;0.88;;
7116;SDS011;3600;48.568;7.870;2022-10-23T12:43:51;2.45;;;1.33;;
7116;SDS011;3600;48.568;7.870;2022-10-23T12:46:24;1.42;;;1.23;;
7116;SDS011;3600;48.568;7.870;2022-10-23T12:48:56;1.20;;;1.15;;
7116;SDS011;3600;48.568;7.870;2022-10-23T12:51:25;1.50;;;1.35;;
7116;SDS011;3600;48.568;7.870;2022-10-23T12:53:56;2.97;;;1.38;;
7116;SDS011;3600;48.568;7.870;2022-10-23T12:56:24;1.45;;;1.17;;
7116;SDS011;3600;48.568;7.870;2022-10-23T12:58:56;2.55;;;1.23;;
7116;SDS011;3600;48.568;7.870;2022-10-23T13:01:28;1.55;;;1.45;;
7116;SDS011;3600;48.568;7.870;2022-10-23T13:04:06;1.73;;;1.35;;
7116;SDS011;3600;48.568;7.870;2022-10-23T13:06:46;2.15;;;1.92;;
7116;SDS011;3600;48.568;7.870;2022-10-23T13:09:19;2.45;;;1.85;;
7116;SDS011;3600;48.568;7.870;2022-10-23T13:11:49;1.98;;;1.65;;
7116;SDS011;3600;48.568;7.870;2022-10-23T13:16:59;2.47;;;1.63;;
7116;SDS011;3600;48.568;7.870;2022-10-23T13:19:28;1.90;;;1.80;;
7116;SDS011;3600;48.568;7.870;2022-10-23T13:21:55;1.92;;;1.50;;
7116;SDS011;3600;48.568;7.870;2022-10-23T13:24:23;2.13;;;1.90;;
7116;SDS011;3600;48.568;7.870;2022-10-23T13:26:52;1.80;;;1.70;;
7116;SDS011;3600;48.568;7.870;2022-10-23T13:29:21;1.95;;;1.85;;
7116;SDS011;3600;48.568;7.870;2022-10-23T13:31:53;1.52;;;1.42;;
7116;SDS011;3600;48.568;7.870;2022-10-23T13:36:53;1.58;;;1.30;;
7116;SDS011;3600;48.568;7.870;2022-10-23T13:39:23;3.20;;;1.50;;
7116;SDS011;3600;48.568;7.870;2022-10-23T13:41:55;1.40;;;1.25;;
7116;SDS011;3600;48.568;7.870;2022-10-23T13:44:26;1.30;;;1.20;;
7116;SDS011;3600;48.568;7.870;2022-10-23T13:46:54;1.48;;;1.38;;
7116;SDS011;3600;48.568;7.870;2022-10-23T13:49:21;4.63;;;2.00;;
7116;SDS011;3600;48.568;7.870;2022-10-23T13:51:50;1.75;;;1.48;;
7116;SDS011;3600;48.568;7.870;2022-10-23T13:54:19;3.92;;;1.20;;
7116;SDS011;3600;48.568;7.870;2022-10-23T13:56:56;2.20;;;1.30;;
7116;SDS011;3600;48.568;7.870;2022-10-23T13:59:23;2.90;;;2.60;;
7116;SDS011;3600;48.568;7.870;2022-10-23T14:01:50;5.03;;;2.20;;
7116;SDS011;3600;48.568;7.870;2022-10-23T14:04:17;2.22;;;1.75;;
7116;SDS011;3600;48.568;7.870;2022-10-23T14:06:44;3.05;;;1.88;;
7116;SDS011;3600;48.568;7.870;2022-10-23T14:09:12;1.85;;;1.63;;
7116;SDS011;3600;48.568;7.870;2022-10-23T14:11:42;1.23;;;1.13;;
7116;SDS011;3600;48.568;7.870;2022-10-23T14:14:09;1.52;;;1.20;;
7116;SDS011;3600;48.568;7.870;2022-10-23T14:16:36;1.30;;;1.15;;
7116;SDS011;3600;48.568;7.870;2022-10-23T14:19:03;1.83;;;1.67;;
7116;SDS011;3600;48.568;7.870;2022-10-23T14:21:30;2.03;;;1.25;;
7116;SDS011;3600;48.568;7.870;2022-10-23T14:23:57;1.58;;;1.08;;
7116;SDS011;3600;48.568;7.870;2022-10-23T14:26:24;3.92;;;1.38;;
7116;SDS011;3600;48.568;7.870;2022-10-23T14:28:56;1.25;;;1.20;;
7116;SDS011;3600;48.568;7.870;2022-10-23T14:31:30;1.38;;;1.20;;
7116;SDS011;3600;48.568;7.870;2022-10-23T14:33:57;3.10;;;1.40;;
7116;SDS011;3600;48.568;7.870;2022-10-23T14:36:26;1.67;;;1.20;;
7116;SDS011;3600;48.568;7.870;2022-10-23T14:39:14;1.60;;;1.50;;
7116;SDS011;3600;48.568;7.870;2022-10-23T14:41:40;1.52;;;1.20;;
7116;SDS011;3600;48.568;7.870;2022-10-23T14:44:07;1.55;;;1.20;;
7116;SDS011;3600;48.568;7.870;2022-10-23T14:57:16;4.28;;;1.92;;
7116;SDS011;3600;48.568;7.870;2022-10-23T14:59:46;2.92;;;1.60;;
7116;SDS011;3600;48.568;7.870;2022-10-23T15:02:14;3.75;;;2.17;;
7116;SDS011;3600;48.568;7.870;2022-10-23T15:04:41;4.60;;;2.10;;
7116;SDS011;3600;48.568;7.870;2022-10-23T15:07:08;2.45;;;1.75;;
7116;SDS011;3600;48.568;7.870;2022-10-23T15:09:34;4.07;;;2.05;;
7116;SDS011;3600;48.568;7.870;2022-10-23T15:12:02;2.13;;;1.90;;
7116;SDS011;3600;48.568;7.870;2022-10-23T15:14:29;2.03;;;1.90;;
7116;SDS011;3600;48.568;7.870;2022-10-23T15:16:56;2.10;;;1.60;;
7116;SDS011;3600;48.568;7.870;2022-10-23T15:19:24;3.80;;;1.80;;
7116;SDS011;3600;48.568;7.870;2022-10-23T15:21:51;4.78;;;2.03;;
7116;SDS011;3600;48.568;7.870;2022-10-23T15:24:18;2.25;;;1.92;;
7116;SDS011;3600;48.568;7.870;2022-10-23T15:26:46;3.80;;;2.15;;
7116;SDS011;3600;48.568;7.870;2022-10-23T15:29:14;2.33;;;2.03;;
7116;SDS011;3600;48.568;7.870;2022-10-23T15:31:51;6.70;;;2.00;;
7116;SDS011;3600;48.568;7.870;2022-10-23T15:34:23;2.05;;;1.85;;
7116;SDS011;3600;48.568;7.870;2022-10-23T15:36:52;4.25;;;2.30;;
7116;SDS011;3600;48.568;7.870;2022-10-23T15:39:22;3.60;;;2.20;;
7116;SDS011;3600;48.568;7.870;2022-10-23T15:41:51;3.80;;;1.90;;
7116;SDS011;3600;48.568;7.870;2022-10-23T15:44:19;1.80;;;1.70;;
7116;SDS011;3600;48.568;7.870;2022-10-23T15:46:48;2.60;;;2.40;;
7116;SDS011;3600;48.568;7.870;2022-10-23T15:49:15;3.63;;;2.55;;
7116;SDS011;3600;48.568;7.870;2022-10-23T15:51:42;3.40;;;2.10;;
7116;SDS011;3600;48.568;7.870;2022-10-23T15:54:10;3.85;;;2.50;;
7116;SDS011;3600;48.568;7.870;2022-10-23T15:56:42;4.03;;;2.50;;
7116;SDS011;3600;48.568;7.870;2022-10-23T15:59:09;3.22;;;2.88;;
7116;SDS011;3600;48.568;7.870;2022-10-23T16:01:36;4.18;;;2.97;;
7116;SDS011;3600;48.568;7.870;2022-10-23T16:04:03;6.90;;;4.20;;
7116;SDS011;3600;48.568;7.870;2022-10-23T16:06:30;8.30;;;3.92;;
7116;SDS011;3600;48.568;7.870;2022-10-23T16:08:57;4.47;;;3.08;;
7116;SDS011;3600;48.568;7.870;2022-10-23T16:11:29;3.17;;;2.45;;
7116;SDS011;3600;48.568;7.870;2022-10-23T16:14:01;3.53;;;2.60;;
7116;SDS011;3600;48.568;7.870;2022-10-23T16:16:29;2.00;;;1.85;;
7116;SDS011;3600;48.568;7.870;2022-10-23T16:18:57;3.50;;;2.83;;
7116;SDS011;3600;48.568;7.870;2022-10-23T16:21:27;2.95;;;2.65;;
7116;SDS011;3600;48.568;7.870;2022-10-23T16:23:58;3.83;;;2.50;;
7116;SDS011;3600;48.568;7.870;2022-10-23T16:26:27;3.40;;;2.97;;
7116;SDS011;3600;48.568;7.870;2022-10-23T16:28:55;6.95;;;3.63;;
7116;SDS011;3600;48.568;7.870;2022-10-23T16:31:25;4.15;;;3.05;;
7116;SDS011;3600;48.568;7.870;2022-10-23T16:33:52;4.38;;;3.10;;
7116;SDS011;3600;48.568;7.870;2022-10-23T16:36:19;4.63;;;3.25;;
7116;SDS011;3600;48.568;7.870;2022-10-23T16:38:46;4.00;;;3.17;;
7116;SDS011;3600;48.568;7.870;2022-10-23T16:41:13;3.13;;;2.33;;
7116;SDS011;3600;48.568;7.870;2022-10-23T16:43:40;3.25;;;2.63;;
7116;SDS011;3600;48.568;7.870;2022-10-23T16:46:17;3.10;;;2.55;;
7116;SDS011;3600;48.568;7.870;2022-10-23T16:48:45;4.30;;;2.40;;
7116;SDS011;3600;48.568;7.870;2022-10-23T16:51:13;2.97;;;2.67;;
7116;SDS011;3600;48.568;7.870;2022-10-23T16:53:42;6.22;;;2.33;;
7116;SDS011;3600;48.568;7.870;2022-10-23T16:56:11;3.63;;;2.40;;
7116;SDS011;3600;48.568;7.870;2022-10-23T16:58:40;5.68;;;2.40;;
7116;SDS011;3600;48.568;7.870;2022-10-23T17:01:12;3.45;;;2.45;;
7116;SDS011;3600;48.568;7.870;2022-10-23T17:03:42;5.57;;;3.10;;
7116;SDS011;3600;48.568;7.870;2022-10-23T17:06:12;4.05;;;3.22;;
7116;SDS011;3600;48.568;7.870;2022-10-23T17:08:40;3.30;;;2.55;;
7116;SDS011;3600;48.568;7.870;2022-10-23T17:11:11;6.85;;;3.00;;
7116;SDS011;3600;48.568;7.870;2022-10-23T17:13:40;4.03;;;2.80;;
7116;SDS011;3600;48.568;7.870;2022-10-23T17:16:10;5.57;;;2.40;;
7116;SDS011;3600;48.568;7.870;2022-10-23T17:18:39;2.70;;;2.50;;
7116;SDS011;3600;48.568;7.870;2022-10-23T17:21:09;3.38;;;2.40;;
7116;SDS011;3600;48.568;7.870;2022-10-23T17:23:37;4.18;;;2.70;;
7116;SDS011;3600;48.568;7.870;2022-10-23T17:26:09;3.25;;;2.40;;
7116;SDS011;3600;48.568;7.870;2022-10-23T17:28:38;2.70;;;2.45;;